Manoel Urbano, Brazil
Current Conditions -  °F | °C
As of 6:00 PM on Monday 20 Oct 2014 (Local Time) from SBTK Reporting Station
Few Clouds Few Clouds  
Wind Chill: 82°   Ceiling: Unl
Heat Index: 87°   Visibility: 6mi
Dew Point: 72°   Wind: 5mph
Humidity: 70%   Direction: 260°W
Pressure: 29.77"   Gusts: NA
Location:  8.84°S, 69.26°W
Report Text: SBTK 202200Z 26004KT 9999 FEW030 28/22 Q1008
Loading
Personal Weather Stations






























Interactive Weather Map
Tropical Storm Tracking
New forecast layout! Learn more

10-Day Weather Forecast

Advertisements
Track Severe Weather on mobile